Time;durP1;ratioP1;P1;durP2;ratioP2;P2;SDS_P1;SDS_P2;PMS_P1;PMS_P2;Temp;Humidity;BMP_temperature;BMP_pressure;BME280_temperature;BME280_humidity;BME280_pressure;Samples;Min_cycle;Max_cycle;Signal;HPM_P1;HPM_P2
2023/06/21 06:32:43;;;;;;;14.50;6.15;;;;;;;20.42;81.42;96725.91;2082114;28;20572;-65
2023/06/21 06:33:44;;;;;;;12.85;5.07;;;;;;;20.51;80.10;96738.44;2078483;28;21106;-65
2023/06/21 06:36:03;;;;;;;10.48;5.55;;;;;;;20.59;81.04;96738.63;2085404;28;20559;-65
2023/06/21 06:54:15;;;;;;;12.52;6.75;;;;;;;20.45;81.43;96757.50;2083636;28;20554;-65
2023/06/21 06:56:25;;;;;;;10.27;5.85;;;;;;;20.53;80.89;96755.91;2083698;28;20576;-62
2023/06/21 06:58:53;;;;;;;12.63;6.40;;;;;;;20.54;81.23;96741.69;2083448;28;20556;-64
2023/06/21 06:59:55;;;;;;;11.57;5.72;;;;;;;20.81;80.62;96752.75;2081305;28;20865;-64
2023/06/21 07:02:11;;;;;;;10.23;6.30;;;;;;;20.93;80.52;96751.72;2093589;27;21079;-64
2023/06/21 07:04:28;;;;;;;12.85;6.28;;;;;;;20.97;80.88;96747.00;2102774;27;21029;-62
2023/06/21 07:06:50;;;;;;;9.23;6.28;;;;;;;21.12;79.67;96742.19;2099034;27;20543;-62
2023/06/21 07:07:53;;;;;;;10.77;5.57;;;;;;;21.15;80.68;96742.78;2088412;27;20703;-62
2023/06/21 07:08:55;;;;;;;17.60;7.50;;;;;;;21.33;80.80;96745.66;2082844;28;20280;-62
2023/06/21 07:09:57;;;;;;;11.63;6.22;;;;;;;21.64;80.41;96745.63;2076416;28;20316;-63
2023/06/21 07:10:58;;;;;;;13.05;5.68;;;;;;;21.81;77.64;96749.47;2077471;28;20291;-62
2023/06/21 07:12:01;;;;;;;10.25;5.55;;;;;;;22.06;77.20;96743.78;2080206;28;20272;-63
2023/06/21 07:13:03;;;;;;;11.38;6.05;;;;;;;22.17;76.19;96743.66;2087300;28;20575;-62
2023/06/21 07:14:05;;;;;;;12.15;6.03;;;;;;;22.16;76.02;96745.47;2087298;28;20700;-64
2023/06/21 07:15:06;;;;;;;17.77;6.00;;;;;;;22.37;75.66;96746.34;2090944;28;20207;-65
2023/06/21 07:16:08;;;;;;;13.32;5.90;;;;;;;22.56;75.53;96756.13;2088167;28;20541;-65
2023/06/21 07:17:09;;;;;;;9.57;5.95;;;;;;;22.45;74.16;96752.66;2090112;28;20199;-65
2023/06/21 07:18:11;;;;;;;15.32;5.97;;;;;;;22.49;74.01;96755.88;2086680;28;20220;-64
2023/06/21 07:19:13;;;;;;;9.35;5.50;;;;;;;22.30;73.77;96762.81;2088046;28;20197;-65
2023/06/21 07:20:14;;;;;;;9.95;5.50;;;;;;;22.18;73.66;96762.13;2089801;28;20259;-64
2023/06/21 07:21:17;;;;;;;10.30;7.10;;;;;;;21.93;74.78;96768.78;2090041;28;20193;-64
2023/06/21 07:22:22;;;;;;;12.32;5.82;;;;;;;21.87;76.09;96772.00;2086223;28;20197;-64
2023/06/21 07:23:23;;;;;;;11.65;5.40;;;;;;;21.96;75.73;96770.34;2086783;28;20195;-64
2023/06/21 07:24:25;;;;;;;11.23;5.30;;;;;;;21.77;75.23;96765.81;2088266;28;20201;-64
2023/06/21 07:25:26;;;;;;;8.18;4.65;;;;;;;21.66;74.62;96769.41;2090341;28;20203;-64
2023/06/21 07:26:28;;;;;;;10.88;5.78;;;;;;;21.54;74.78;96774.78;2088635;28;20695;-64
2023/06/21 07:27:30;;;;;;;10.73;5.03;;;;;;;21.43;76.28;96772.22;2087396;28;20203;-64
2023/06/21 07:28:32;;;;;;;14.45;5.45;;;;;;;21.48;77.75;96764.72;2088822;28;20196;-64
2023/06/21 07:29:33;;;;;;;11.05;5.95;;;;;;;21.44;78.54;96765.94;2088240;28;20603;-64
2023/06/21 07:30:35;;;;;;;12.07;5.70;;;;;;;21.42;78.61;96773.22;2087899;28;20212;-64
2023/06/21 07:37:02;;;;;;;19.88;8.95;;;;;;;21.25;76.94;96745.47;2105755;27;20563;-61
2023/06/21 07:39:17;;;;;;;8.40;4.80;;;;;;;21.28;77.45;96744.34;2092516;27;20554;-61
2023/06/21 07:40:19;;;;;;;13.25;5.57;;;;;;;21.29;76.70;96746.03;2088340;28;20296;-62
2023/06/21 07:41:20;;;;;;;9.80;4.78;;;;;;;21.30;76.16;96747.72;2088800;28;20351;-61
2023/06/21 07:42:22;;;;;;;9.35;5.50;;;;;;;21.37;76.85;96740.91;2085716;28;20222;-61
2023/06/21 07:43:24;;;;;;;9.43;4.70;;;;;;;21.39;77.05;96741.59;2068826;28;20198;-61
2023/06/21 07:44:25;;;;;;;8.73;5.30;;;;;;;21.52;75.84;96738.72;2071419;28;20383;-61
2023/06/21 07:45:27;;;;;;;9.55;5.03;;;;;;;21.68;75.74;96735.59;2071975;28;20279;-61
2023/06/21 07:46:29;;;;;;;10.77;5.45;;;;;;;21.71;75.07;96737.13;2070256;28;20206;-62
2023/06/21 07:47:31;;;;;;;8.70;4.40;;;;;;;21.91;75.06;96730.03;2069236;28;20187;-61
2023/06/21 07:48:34;;;;;;;12.52;4.82;;;;;;;21.97;75.65;96735.63;2070997;28;20276;-62
2023/06/21 07:49:35;;;;;;;10.05;4.65;;;;;;;21.99;74.18;96735.50;2073980;28;20850;-61
2023/06/21 07:50:37;;;;;;;15.85;5.70;;;;;;;22.21;74.64;96736.22;2073288;28;20279;-61
2023/06/21 07:51:38;;;;;;;11.13;5.00;;;;;;;22.24;73.69;96736.78;2072645;28;20289;-62
2023/06/21 07:52:40;;;;;;;13.10;5.65;;;;;;;22.26;73.34;96745.47;2072509;28;20250;-61
2023/06/21 07:53:41;;;;;;;11.32;5.07;;;;;;;22.46;74.03;96762.31;2069839;28;20193;-61
2023/06/21 07:54:47;;;;;;;7.55;4.82;;;;;;;22.72;72.55;96744.94;2072297;28;20212;-62
2023/06/21 07:55:49;;;;;;;8.02;4.80;;;;;;;22.70;73.04;96760.19;2070452;28;20209;-61
2023/06/21 07:56:50;;;;;;;8.40;5.13;;;;;;;22.34;72.29;96758.91;2067981;28;20194;-61
2023/06/21 07:57:52;;;;;;;15.95;4.75;;;;;;;22.40;72.19;96767.31;2067365;28;20222;-61
2023/06/21 07:58:53;;;;;;;9.68;5.53;;;;;;;22.21;73.68;96761.00;2059324;28;20211;-61
2023/06/21 07:59:55;;;;;;;9.68;4.25;;;;;;;22.22;73.02;96764.50;2063563;28;20202;-61
2023/06/21 08:00:57;;;;;;;7.20;4.65;;;;;;;22.45;72.87;96767.78;2063450;28;20285;-62
2023/06/21 08:01:58;;;;;;;7.05;4.18;;;;;;;22.48;72.11;96767.50;2064827;28;20242;-62
2023/06/21 08:03:01;;;;;;;6.25;4.68;;;;;;;22.38;71.55;96777.28;2063164;28;20228;-61
2023/06/21 08:04:03;;;;;;;11.80;4.80;;;;;;;22.37;72.94;96780.94;2060851;28;20198;-61
2023/06/21 08:05:05;;;;;;;6.55;4.35;;;;;;;22.30;73.99;96784.09;2062453;28;20251;-61
2023/06/21 08:06:07;;;;;;;9.63;4.95;;;;;;;22.23;74.29;96792.78;2065689;28;20641;-61
2023/06/21 08:07:08;;;;;;;6.80;4.20;;;;;;;21.98;74.04;96789.66;2060763;28;20646;-62
2023/06/21 08:08:10;;;;;;;10.30;4.60;;;;;;;21.81;75.26;96791.13;2061744;28;20221;-62
2023/06/21 08:09:11;;;;;;;8.13;4.80;;;;;;;21.79;75.76;96795.78;2062704;28;20272;-61
2023/06/21 08:10:13;;;;;;;7.55;4.90;;;;;;;21.69;75.68;96791.25;2061597;28;20191;-61
2023/06/21 08:11:14;;;;;;;8.52;5.13;;;;;;;21.72;76.18;96798.09;2063847;28;20849;-61
2023/06/21 08:12:16;;;;;;;13.52;5.47;;;;;;;21.79;77.21;96795.78;2064042;28;20577;-61
2023/06/21 08:13:22;;;;;;;7.70;4.50;;;;;;;21.71;76.68;96800.91;2061436;28;20265;-61
2023/06/21 08:14:24;;;;;;;10.05;5.00;;;;;;;21.68;76.84;96800.19;2066010;28;20201;-61
2023/06/21 08:15:25;;;;;;;7.60;4.05;;;;;;;21.68;77.68;96807.31;2064792;28;20635;-61
2023/06/21 10:36:55;;;;;;;14.98;6.75;;;;;;;19.96;97.48;96882.47;2083966;28;20557;-60
2023/06/21 10:39:08;;;;;;;10.75;5.47;;;;;;;19.99;96.65;96889.34;2089537;28;20915;-60
2023/06/21 10:40:10;;;;;;;20.88;7.13;;;;;;;20.02;96.60;96883.78;2089392;28;20227;-61
2023/06/21 10:41:27;;;;;;;13.98;5.88;;;;;;;20.01;95.96;96884.72;2088992;28;20604;-64
2023/06/21 10:42:30;;;;;;;13.82;6.10;;;;;;;20.01;95.00;96880.28;2087062;28;20711;-64
2023/06/21 10:43:32;;;;;;;17.40;5.72;;;;;;;20.03;93.40;96880.16;2085421;28;20204;-64
2023/06/21 10:44:34;;;;;;;12.60;6.00;;;;;;;20.10;93.87;96881.38;2082527;28;20228;-64
2023/06/21 10:45:38;;;;;;;10.20;6.30;;;;;;;20.28;94.41;96878.19;2083684;28;20281;-64
2023/06/21 10:46:41;;;;;;;9.95;6.03;;;;;;;20.25;92.39;96876.63;2084372;28;20200;-63
2023/06/21 10:47:46;;;;;;;8.23;4.85;;;;;;;20.31;91.15;96881.44;2081768;28;20216;-63
2023/06/21 10:48:48;;;;;;;11.88;5.95;;;;;;;20.39;91.61;96881.69;2082155;28;20193;-63
2023/06/21 10:49:51;;;;;;;13.88;5.88;;;;;;;20.47;90.98;96889.00;2084550;28;20545;-65
2023/06/21 10:50:54;;;;;;;10.07;5.20;;;;;;;20.55;91.67;96880.44;2084390;28;20201;-63
2023/06/21 10:51:57;;;;;;;11.50;5.22;;;;;;;20.63;90.86;96878.00;2083112;28;20287;-63
2023/06/21 10:52:58;;;;;;;7.32;4.43;;;;;;;20.68;88.36;96872.31;2084414;28;20221;-63
2023/06/21 10:54:01;;;;;;;11.98;5.45;;;;;;;20.88;89.00;96871.53;2083032;28;20247;-63
2023/06/21 10:55:04;;;;;;;9.10;4.90;;;;;;;21.04;86.92;96868.44;2084963;28;20585;-63
2023/06/21 10:56:05;;;;;;;9.63;4.50;;;;;;;20.97;87.15;96863.78;2081497;28;20771;-63
2023/06/21 10:57:08;;;;;;;16.00;4.93;;;;;;;20.96;85.84;96872.72;2085871;28;20224;-63
2023/06/21 10:58:10;;;;;;;9.32;4.95;;;;;;;20.91;85.36;96869.59;2084739;28;20255;-63
2023/06/21 10:59:12;;;;;;;12.95;5.50;;;;;;;21.15;84.58;96869.34;2083332;28;20346;-64
2023/06/21 11:00:15;;;;;;;7.32;4.80;;;;;;;21.12;84.70;96867.78;2083475;28;20901;-63
2023/06/21 11:01:20;;;;;;;11.35;5.80;;;;;;;21.16;84.64;96865.72;2083984;28;20230;-63
2023/06/21 11:02:23;;;;;;;9.55;5.30;;;;;;;21.28;85.26;96866.50;2083460;28;20228;-63
2023/06/21 11:03:26;;;;;;;11.15;4.85;;;;;;;21.26;82.87;96863.16;2083527;28;20196;-63
2023/06/21 11:04:28;;;;;;;10.30;5.53;;;;;;;21.56;84.35;96877.47;2083148;28;20205;-63
2023/06/21 11:05:40;;;;;;;7.82;5.03;;;;;;;21.56;82.05;96872.16;2082129;28;20193;-64
2023/06/21 11:06:43;;;;;;;7.82;4.75;;;;;;;21.69;82.82;96870.97;2082864;28;20611;-63
2023/06/21 11:08:00;;;;;;;10.57;4.93;;;;;;;21.89;82.37;96872.84;2081782;28;20723;-64
2023/06/21 11:09:10;;;;;;;6.88;4.43;;;;;;;21.95;82.00;96875.84;2078504;28;20211;-64
2023/06/21 11:10:12;;;;;;;10.52;5.10;;;;;;;22.30;83.39;96876.38;2078567;28;20201;-64
2023/06/21 11:11:30;;;;;;;9.27;4.88;;;;;;;22.75;81.71;96875.06;2079384;28;20201;-64
2023/06/21 11:12:34;;;;;;;10.90;5.28;;;;;;;22.93;81.55;96880.50;2073949;28;20242;-64
2023/06/21 11:13:38;;;;;;;8.52;4.28;;;;;;;22.95;80.69;96875.91;2085008;28;20335;-64
2023/06/21 11:14:39;;;;;;;11.43;5.18;;;;;;;22.79;78.71;96874.66;2084826;28;20672;-64
2023/06/21 11:15:44;;;;;;;13.75;4.82;;;;;;;22.69;78.97;96872.94;2085018;28;20288;-64
2023/06/21 11:16:46;;;;;;;8.05;5.05;;;;;;;22.59;79.80;96878.25;2085057;28;20202;-64
2023/06/21 11:18:21;;;;;;;6.90;4.80;;;;;;;22.43;78.45;96882.28;2079227;28;20228;-64
2023/06/21 11:19:26;;;;;;;15.60;4.95;;;;;;;22.96;78.11;96886.41;2075374;28;20747;-64
2023/06/21 11:20:31;;;;;;;9.55;4.97;;;;;;;23.54;77.78;96886.50;2073578;28;20201;-64
2023/06/21 11:21:41;;;;;;;8.73;4.55;;;;;;;23.60;79.62;96888.59;2076476;28;20267;-64
2023/06/21 11:22:55;;;;;;;12.15;4.85;;;;;;;23.83;75.91;96890.91;2072848;28;20355;-64
2023/06/21 11:23:57;;;;;;;10.55;5.03;;;;;;;24.02;76.43;96884.69;2075370;28;20555;-66
2023/06/21 11:25:15;;;;;;;11.20;5.13;;;;;;;23.45;75.49;96890.88;2077777;28;20660;-66
2023/06/21 11:26:18;;;;;;;10.65;4.97;;;;;;;23.66;74.33;96895.19;2075171;28;20233;-65
2023/06/21 11:27:19;;;;;;;11.70;5.85;;;;;;;23.58;75.57;96895.88;2074906;28;20214;-65
2023/06/21 11:28:23;;;;;;;9.93;5.15;;;;;;;23.81;74.16;96891.06;2076510;28;20228;-66
2023/06/21 11:29:59;;;;;;;9.63;5.75;;;;;;;23.91;74.27;96897.22;2074345;28;20232;-66
2023/06/21 11:31:01;;;;;;;11.88;5.53;;;;;;;24.53;73.09;96906.47;2075202;28;20201;-66
2023/06/21 11:32:13;;;;;;;8.50;5.25;;;;;;;24.17;73.91;96893.06;2077050;28;20205;-66
2023/06/21 11:33:19;;;;;;;9.60;5.60;;;;;;;24.25;71.06;96901.13;2076198;28;20213;-66
2023/06/21 11:34:24;;;;;;;9.95;5.25;;;;;;;24.07;74.17;96893.91;2075967;28;20205;-66
2023/06/21 11:35:46;;;;;;;8.65;5.53;;;;;;;24.33;71.82;96890.59;2075688;28;20332;-65
2023/06/21 11:36:48;;;;;;;9.90;6.50;;;;;;;24.12;72.49;96896.16;2073764;28;20288;-66
2023/06/21 11:37:50;;;;;;;9.45;6.07;;;;;;;24.24;73.13;96886.13;2075124;28;20272;-65
2023/06/21 11:38:58;;;;;;;73.18;52.42;;;;;;;25.14;73.12;96899.59;2075952;28;20366;-63
2023/06/21 11:40:05;;;;;;;49.58;30.73;;;;;;;25.83;73.97;96888.25;2073708;28;20325;-64
2023/06/21 11:41:53;;;;;;;13.25;7.00;;;;;;;26.52;70.57;96893.56;2076591;28;20280;-66
2023/06/21 11:42:54;;;;;;;21.95;12.15;;;;;;;27.05;69.46;96895.03;2072658;28;20729;-66
2023/06/21 11:43:56;;;;;;;9.30;5.82;;;;;;;26.63;67.46;96890.59;2075922;28;20247;-67
2023/06/21 11:45:20;;;;;;;8.52;5.50;;;;;;;26.69;66.42;96889.09;2074692;28;20201;-64
2023/06/21 11:46:25;;;;;;;9.73;4.55;;;;;;;26.28;68.90;96886.31;2074947;28;20701;-64
2023/06/21 11:47:26;;;;;;;12.43;4.75;;;;;;;26.60;66.07;96890.06;2072411;28;20209;-64
2023/06/21 11:48:30;;;;;;;9.38;5.07;;;;;;;25.52;67.27;96883.38;2077693;28;20280;-64
2023/06/21 11:49:33;;;;;;;10.20;5.55;;;;;;;25.25;68.93;96896.69;2074585;28;20229;-64
2023/06/21 11:50:36;;;;;;;10.90;5.20;;;;;;;26.16;65.74;96891.13;2069072;28;20248;-64
2023/06/21 11:51:59;;;;;;;7.90;4.88;;;;;;;26.43;66.59;96892.72;2069125;28;20201;-64
2023/06/21 11:53:21;;;;;;;8.82;5.60;;;;;;;25.64;68.01;96892.81;2068468;28;20675;-64
2023/06/21 11:54:31;;;;;;;9.05;5.80;;;;;;;24.29;69.54;96889.22;2071505;28;20198;-64
2023/06/21 11:55:32;;;;;;;14.15;5.05;;;;;;;24.75;70.36;96890.06;2068346;28;20205;-64
2023/06/21 11:56:34;;;;;;;8.23;4.40;;;;;;;25.55;70.37;96888.41;2071026;28;20206;-64
2023/06/21 11:57:42;;;;;;;8.18;4.75;;;;;;;25.64;68.21;96886.63;2071190;28;20668;-64
2023/06/21 11:58:45;;;;;;;8.88;5.25;;;;;;;25.62;69.06;96883.28;2069825;28;20202;-64
2023/06/21 11:59:48;;;;;;;10.43;5.90;;;;;;;25.52;69.44;96886.91;2070815;28;20209;-64
2023/06/21 12:00:50;;;;;;;8.48;5.18;;;;;;;25.19;68.28;96891.97;2069353;28;20221;-64
2023/06/21 12:01:52;;;;;;;8.50;5.15;;;;;;;25.51;69.92;96885.22;2069774;28;20193;-64
2023/06/21 12:02:54;;;;;;;8.52;4.80;;;;;;;25.37;68.05;96893.78;2070132;28;20312;-64
2023/06/21 12:04:02;;;;;;;10.40;5.18;;;;;;;25.32;69.45;96886.22;2070819;28;20625;-64
2023/06/21 12:05:04;;;;;;;8.60;5.00;;;;;;;25.56;70.05;96892.75;2069264;28;20202;-64
2023/06/21 12:06:06;;;;;;;6.43;4.10;;;;;;;26.65;67.61;96893.09;2069362;28;20194;-64
2023/06/21 12:07:09;;;;;;;7.60;4.82;;;;;;;26.49;65.74;96891.25;2069963;28;21132;-64
2023/06/21 12:08:10;;;;;;;7.30;4.65;;;;;;;26.78;65.43;96888.16;2070825;28;20279;-64
2023/06/21 12:09:12;;;;;;;10.30;4.32;;;;;;;26.89;64.19;96889.66;2068928;28;20200;-64
2023/06/21 12:10:14;;;;;;;11.38;4.40;;;;;;;26.90;62.63;96888.66;2069725;28;20213;-64
2023/06/21 12:11:18;;;;;;;8.40;4.32;;;;;;;26.64;64.31;96891.41;2067735;28;20665;-64
2023/06/21 12:12:19;;;;;;;9.32;4.10;;;;;;;26.27;64.07;96895.31;2071121;28;20681;-64
2023/06/21 12:13:20;;;;;;;8.07;4.57;;;;;;;25.68;65.04;96891.50;2068304;28;20580;-64
2023/06/21 12:14:22;;;;;;;14.40;4.80;;;;;;;25.87;64.23;96887.75;2068223;28;20240;-64
2023/06/21 12:15:24;;;;;;;7.82;5.10;;;;;;;25.74;63.54;96895.38;2069565;28;20201;-64
2023/06/21 12:16:26;;;;;;;12.40;4.32;;;;;;;26.08;65.06;96897.28;2067542;28;20198;-64
2023/06/21 12:17:28;;;;;;;9.38;4.90;;;;;;;26.33;64.14;96892.00;2068860;28;20244;-64
2023/06/21 12:18:31;;;;;;;9.45;5.20;;;;;;;24.84;64.76;96888.31;2069632;28;20675;-64
2023/06/21 12:19:33;;;;;;;7.28;4.80;;;;;;;25.71;65.66;96891.19;2068261;28;20241;-64
2023/06/21 12:20:37;;;;;;;8.88;4.40;;;;;;;26.08;62.53;96886.56;2068642;28;20301;-64
2023/06/21 12:21:39;;;;;;;8.70;4.30;;;;;;;26.24;62.50;96892.00;2068931;28;20645;-64
2023/06/21 12:22:40;;;;;;;11.77;4.15;;;;;;;26.75;60.71;96888.47;2068045;28;20305;-64
2023/06/21 12:23:42;;;;;;;8.88;4.45;;;;;;;26.71;62.22;96879.06;2069784;28;20224;-64
2023/06/21 12:24:44;;;;;;;7.40;4.53;;;;;;;26.86;60.85;96881.97;2070741;28;20284;-64
2023/06/21 12:25:51;;;;;;;9.02;4.97;;;;;;;26.60;61.67;96893.63;2070547;28;20217;-64
2023/06/21 12:26:55;;;;;;;10.88;4.95;;;;;;;27.23;61.09;96895.91;2070181;28;20714;-64
2023/06/21 12:27:57;;;;;;;6.85;4.35;;;;;;;28.05;61.21;96894.97;2067857;28;20222;-64
2023/06/21 12:28:58;;;;;;;6.25;4.45;;;;;;;28.01;60.65;96892.63;2069017;28;20222;-64
2023/06/21 12:30:01;;;;;;;13.55;3.85;;;;;;;27.53;61.39;96892.53;2068058;28;20277;-64
2023/06/21 12:31:07;;;;;;;11.30;4.20;;;;;;;27.63;61.79;96891.50;2069428;28;20190;-64
2023/06/21 12:32:11;;;;;;;5.70;4.07;;;;;;;27.21;63.78;96893.34;2072078;28;20193;-64
2023/06/21 12:33:14;;;;;;;8.15;4.63;;;;;;;28.12;61.76;96895.97;2069074;28;20243;-64
2023/06/21 12:34:17;;;;;;;7.50;4.68;;;;;;;28.11;60.27;96899.66;2068160;28;20597;-64
2023/06/21 12:35:18;;;;;;;8.07;4.20;;;;;;;28.53;59.16;96898.44;2069175;28;20606;-64
2023/06/21 12:36:23;;;;;;;6.88;4.20;;;;;;;29.15;59.24;96900.28;2068042;28;20198;-64
2023/06/21 12:37:24;;;;;;;15.33;5.10;;;;;;;29.54;55.06;96901.16;2068815;28;20289;-64
2023/06/21 12:38:26;;;;;;;6.33;4.23;;;;;;;28.69;56.99;96896.75;2068295;28;20520;-64
2023/06/21 12:39:27;;;;;;;6.43;3.70;;;;;;;29.22;55.61;96904.94;2068743;28;20431;-64
2023/06/21 12:40:29;;;;;;;7.07;4.20;;;;;;;28.42;56.56;96904.25;2068781;28;20260;-64
2023/06/21 12:41:33;;;;;;;5.30;3.90;;;;;;;27.70;55.94;96905.94;2068044;28;20427;-64
2023/06/21 12:42:35;;;;;;;5.57;3.63;;;;;;;28.76;57.56;96897.69;2068944;28;20481;-63
2023/06/21 12:43:45;;;;;;;5.77;3.30;;;;;;;29.52;53.07;96896.97;2068754;28;20459;-64
2023/06/21 12:44:46;;;;;;;7.53;4.25;;;;;;;29.36;53.48;96898.81;2069098;28;20428;-63
2023/06/21 12:45:48;;;;;;;10.00;4.33;;;;;;;28.88;55.79;96898.13;2068162;28;20198;-64
2023/06/21 12:46:51;;;;;;;9.43;4.47;;;;;;;29.47;55.15;96895.69;2070011;28;20427;-64
2023/06/21 12:47:54;;;;;;;9.47;4.90;;;;;;;28.37;54.27;96896.69;2068763;28;20459;-64
2023/06/21 12:48:58;;;;;;;17.60;5.73;;;;;;;27.35;58.60;96894.53;2070238;28;20474;-63
2023/06/21 12:50:00;;;;;;;11.80;4.45;;;;;;;26.66;58.86;96890.25;2068052;28;20427;-63
2023/06/21 12:51:02;;;;;;;10.05;4.40;;;;;;;26.72;58.92;96894.13;2069650;28;20191;-63
2023/06/21 12:52:04;;;;;;;9.98;4.57;;;;;;;26.25;60.33;96892.81;2068492;28;20186;-63
2023/06/21 12:53:06;;;;;;;10.23;4.55;;;;;;;25.10;63.79;96895.53;2070050;28;20225;-63
2023/06/21 12:54:19;;;;;;;10.60;4.50;;;;;;;25.78;64.52;96901.25;2070447;28;20565;-63
2023/06/21 12:55:22;;;;;;;11.85;5.03;;;;;;;26.55;62.22;96896.78;2069383;28;20193;-63
2023/06/21 12:56:31;;;;;;;11.20;4.82;;;;;;;27.17;61.81;96898.25;2069410;28;21113;-63
2023/06/21 12:57:33;;;;;;;20.50;5.07;;;;;;;27.89;58.68;96898.53;2071479;28;20247;-64
2023/06/21 12:58:36;;;;;;;12.15;5.28;;;;;;;28.34;57.63;96894.34;2072043;28;20702;-64
2023/06/21 12:59:38;;;;;;;10.45;4.43;;;;;;;28.91;56.22;96895.06;2070675;28;20654;-64
2023/06/21 13:00:39;;;;;;;7.07;4.20;;;;;;;28.23;57.57;96897.44;2069012;28;20206;-63
2023/06/21 13:01:41;;;;;;;9.70;3.72;;;;;;;29.14;57.13;96906.69;2069046;28;20203;-64
2023/06/21 13:02:42;;;;;;;7.97;4.78;;;;;;;29.75;55.95;96899.59;2070640;28;20290;-64
2023/06/21 13:03:44;;;;;;;8.07;3.67;;;;;;;29.78;56.22;96899.25;2071398;28;20198;-64
2023/06/21 13:04:46;;;;;;;6.90;3.70;;;;;;;29.89;55.12;96895.28;2071043;28;20438;-64
2023/06/21 13:05:48;;;;;;;5.73;4.33;;;;;;;29.86;55.75;96890.25;2068491;28;20435;-64
2023/06/21 13:06:49;;;;;;;5.90;3.70;;;;;;;30.30;54.15;96894.81;2070363;28;20442;-64
2023/06/21 13:07:51;;;;;;;8.60;4.33;;;;;;;30.30;54.35;96889.44;2070285;28;20469;-64
2023/06/21 13:08:54;;;;;;;8.03;4.40;;;;;;;30.40;53.91;96898.06;2069039;28;20446;-63
2023/06/21 13:09:55;;;;;;;6.33;3.70;;;;;;;30.50;53.64;96905.03;2069145;28;20982;-64
2023/06/21 13:10:59;;;;;;;5.20;3.53;;;;;;;30.62;52.65;96906.22;2067617;28;20431;-64
2023/06/21 13:12:00;;;;;;;6.70;4.10;;;;;;;30.13;53.33;96902.25;2067206;28;20495;-64
2023/06/21 13:13:02;;;;;;;4.67;3.87;;;;;;;30.58;52.76;96897.69;2069673;28;20485;-64
2023/06/21 13:14:05;;;;;;;6.10;4.20;;;;;;;30.60;53.36;96897.47;2069337;28;20518;-64
2023/06/21 13:15:07;;;;;;;4.93;3.40;;;;;;;30.86;53.68;96899.66;2068716;28;20513;-64
2023/06/21 13:16:10;;;;;;;7.80;3.90;;;;;;;30.03;52.93;96897.16;2067970;28;20439;-64
2023/06/21 13:17:12;;;;;;;9.13;4.60;;;;;;;29.89;52.92;96898.84;2066783;28;20475;-64
2023/06/21 13:18:13;;;;;;;9.70;3.83;;;;;;;30.37;52.18;96893.06;2067619;28;20490;-64
2023/06/21 13:19:15;;;;;;;5.00;3.60;;;;;;;30.29;51.67;96891.28;2068845;28;21173;-64
2023/06/21 13:20:16;;;;;;;6.90;3.53;;;;;;;29.99;52.64;96897.72;2069456;28;20521;-64
2023/06/21 13:21:20;;;;;;;4.40;3.27;;;;;;;30.30;52.35;96889.44;2068059;28;21092;-64
2023/06/21 13:22:22;;;;;;;7.43;3.90;;;;;;;30.52;52.12;96890.34;2067392;28;20929;-64
2023/06/21 13:23:25;;;;;;;6.20;3.70;;;;;;;30.45;51.82;96887.56;2067885;28;20427;-64
2023/06/21 13:24:26;;;;;;;8.33;3.60;;;;;;;30.28;51.24;96888.78;2068946;28;20427;-64
2023/06/21 13:25:28;;;;;;;11.50;3.70;;;;;;;30.33;51.62;96883.66;2070565;28;20458;-64
2023/06/21 13:26:30;;;;;;;7.50;3.60;;;;;;;29.70;53.23;96892.09;2069451;28;20958;-64
2023/06/21 13:27:31;;;;;;;5.50;3.77;;;;;;;30.24;52.62;96890.19;2070018;28;20515;-64
2023/06/21 13:28:33;;;;;;;7.97;3.70;;;;;;;30.15;53.07;96889.44;2067753;28;20519;-64
2023/06/21 13:29:34;;;;;;;6.33;3.60;;;;;;;30.27;52.36;96889.78;2068495;28;20427;-64
2023/06/21 13:30:36;;;;;;;4.93;3.50;;;;;;;30.00;52.37;96891.31;2069289;28;20443;-64
2023/06/21 13:31:38;;;;;;;7.53;3.47;;;;;;;29.24;53.13;96889.44;2066978;28;21072;-64
2023/06/21 13:32:39;;;;;;;5.27;3.80;;;;;;;29.44;53.67;96890.66;2069737;28;20470;-64
2023/06/21 13:33:41;;;;;;;8.67;4.40;;;;;;;29.85;53.41;96880.50;2068196;28;20432;-64
2023/06/21 13:34:42;;;;;;;8.40;3.30;;;;;;;29.88;54.14;96885.53;2070793;28;20431;-64
2023/06/21 13:35:44;;;;;;;6.33;3.70;;;;;;;29.77;53.66;96887.63;2068169;28;20458;-64
2023/06/21 13:36:45;;;;;;;5.97;3.80;;;;;;;29.59;54.02;96882.59;2068678;28;20423;-64
2023/06/21 13:37:47;;;;;;;6.40;3.67;;;;;;;29.59;54.74;96885.31;2068680;28;20504;-64
2023/06/21 13:38:48;;;;;;;7.50;3.10;;;;;;;29.82;54.36;96884.41;2067722;28;20856;-64
2023/06/21 13:39:50;;;;;;;5.57;2.80;;;;;;;30.00;53.71;96884.06;2069545;28;20914;-64
2023/06/21 13:40:51;;;;;;;10.13;3.80;;;;;;;29.90;53.84;96886.19;2067320;28;20972;-64
2023/06/21 13:41:53;;;;;;;4.77;3.40;;;;;;;29.81;53.06;96877.34;2068602;28;20434;-64
2023/06/21 13:42:55;;;;;;;4.60;2.87;;;;;;;30.05;52.65;96881.66;2069567;28;20458;-64
2023/06/21 13:43:56;;;;;;;8.63;3.20;;;;;;;29.64;52.04;96877.50;2067439;28;20459;-63
2023/06/21 13:44:58;;;;;;;8.47;3.40;;;;;;;29.24;53.31;96879.56;2069031;28;20725;-63
2023/06/21 13:45:59;;;;;;;6.50;3.80;;;;;;;27.87;57.29;96877.22;2067297;28;20443;-63
2023/06/21 13:47:01;;;;;;;6.57;3.47;;;;;;;27.97;57.17;96877.03;2069463;28;20938;-63
2023/06/21 13:48:04;;;;;;;6.90;3.70;;;;;;;29.29;54.66;96877.19;2067792;28;20544;-63
2023/06/21 13:49:05;;;;;;;8.13;3.70;;;;;;;29.84;54.12;96877.00;2069908;28;20953;-63
2023/06/21 13:50:07;;;;;;;9.00;3.80;;;;;;;30.08;52.20;96881.28;2069315;28;20428;-63
2023/06/21 13:51:09;;;;;;;5.50;3.23;;;;;;;29.30;53.77;96876.16;2070136;28;20481;-63
2023/06/21 13:52:10;;;;;;;7.60;3.83;;;;;;;28.55;54.84;96877.63;2069970;28;20439;-63
2023/06/21 13:53:11;;;;;;;4.80;3.60;;;;;;;28.92;54.98;96876.06;2067863;28;20965;-63
2023/06/21 13:54:13;;;;;;;4.33;3.57;;;;;;;29.59;54.17;96871.03;2068617;28;20471;-63
2023/06/21 13:55:14;;;;;;;5.20;3.10;;;;;;;30.37;52.96;96873.34;2068966;28;20959;-63
2023/06/21 13:56:16;;;;;;;7.77;4.13;;;;;;;30.97;51.45;96868.66;2067957;28;20454;-63
2023/06/21 13:57:18;;;;;;;7.83;3.40;;;;;;;31.12;50.32;96875.88;2069219;28;20419;-63
2023/06/21 13:58:20;;;;;;;5.97;3.23;;;;;;;31.43;49.41;96878.22;2069023;28;20611;-63
2023/06/21 13:59:21;;;;;;;5.10;3.50;;;;;;;30.85;49.71;96872.88;2068262;28;20447;-64
2023/06/21 14:00:23;;;;;;;5.87;3.70;;;;;;;31.00;50.30;96873.66;2068103;28;20467;-63
2023/06/21 14:01:25;;;;;;;5.43;3.37;;;;;;;31.10;50.86;96873.38;2067512;28;20435;-64
2023/06/21 14:02:26;;;;;;;5.73;3.40;;;;;;;31.39;50.26;96872.38;2069830;28;20482;-63
2023/06/21 14:03:28;;;;;;;5.57;4.07;;;;;;;31.21;51.02;96872.00;2068136;28;20934;-64
2023/06/21 14:04:30;;;;;;;5.07;3.10;;;;;;;31.37;50.60;96873.59;2068524;28;20957;-64
2023/06/21 14:05:31;;;;;;;7.60;3.67;;;;;;;31.25;50.17;96874.13;2068343;28;21035;-64
2023/06/21 14:06:33;;;;;;;4.90;3.47;;;;;;;31.21;50.21;96877.41;2069424;28;20447;-63
2023/06/21 14:07:35;;;;;;;6.20;3.47;;;;;;;31.25;49.94;96876.81;2067016;28;20699;-64
2023/06/21 14:08:37;;;;;;;5.83;3.33;;;;;;;31.46;49.95;96877.81;2069080;28;20439;-64
2023/06/21 14:09:39;;;;;;;7.10;3.60;;;;;;;31.27;49.37;96880.19;2067019;28;21367;-63
2023/06/21 14:10:41;;;;;;;6.27;3.27;;;;;;;31.40;49.37;96878.59;2069904;28;20514;-64
2023/06/21 14:11:42;;;;;;;7.50;3.20;;;;;;;31.58;48.67;96878.13;2072813;28;20505;-64
2023/06/21 14:12:44;;;;;;;4.60;3.47;;;;;;;31.22;48.83;96877.22;2070132;28;20459;-64
2023/06/21 14:13:45;;;;;;;6.03;3.40;;;;;;;30.93;50.33;96879.00;2067443;28;20442;-64
2023/06/21 14:14:47;;;;;;;6.87;3.50;;;;;;;30.52;49.99;96881.44;2069252;28;20427;-64
2023/06/21 14:15:48;;;;;;;5.13;3.67;;;;;;;30.58;50.97;96884.19;2070150;28;20435;-63
2023/06/21 14:16:50;;;;;;;7.23;3.70;;;;;;;30.11;50.72;96890.84;2070815;28;20438;-63
2023/06/21 14:17:52;;;;;;;8.03;4.07;;;;;;;29.39;52.09;96886.84;2066618;28;20487;-63
2023/06/21 14:18:53;;;;;;;5.50;3.77;;;;;;;29.11;53.23;96888.19;2069455;28;20759;-63
2023/06/21 14:20:00;;;;;;;4.80;3.30;;;;;;;29.10;53.78;96883.00;2067969;28;20775;-63
2023/06/21 14:21:01;;;;;;;4.90;3.50;;;;;;;29.32;53.79;96884.88;2067251;28;20464;-63
2023/06/21 14:22:04;;;;;;;6.07;3.77;;;;;;;29.62;52.86;96876.03;2068563;28;20427;-63